createdAt,value
2018-12-09T00:00:50.942Z,2.27
2018-12-09T00:03:19.907Z,2.16
2018-12-09T00:05:48.936Z,2.45
2018-12-09T00:08:17.861Z,2.56
2018-12-09T00:10:46.785Z,2.66
2018-12-09T00:13:15.800Z,2.77
2018-12-09T00:15:44.704Z,2.41
2018-12-09T00:18:13.579Z,2.35
2018-12-09T00:20:42.482Z,2.25
2018-12-09T00:23:11.392Z,2.28
2018-12-09T00:25:40.288Z,2.39
2018-12-09T00:28:09.200Z,2.36
2018-12-09T00:30:38.230Z,2.43
2018-12-09T00:33:07.289Z,2.18
2018-12-09T00:35:36.322Z,1.98
2018-12-09T00:38:05.197Z,2.30
2018-12-09T00:40:34.102Z,2.31
2018-12-09T00:43:04.056Z,2.39
2018-12-09T00:45:32.972Z,2.37
2018-12-09T00:48:01.868Z,2.50
2018-12-09T00:50:30.989Z,2.55
2018-12-09T00:53:00.029Z,2.26
2018-12-09T00:55:28.973Z,2.50
2018-12-09T00:57:58.384Z,2.60
2018-12-09T01:00:27.309Z,2.57
2018-12-09T01:02:56.213Z,2.55
2018-12-09T01:05:25.119Z,2.67
2018-12-09T01:07:54.036Z,2.81
2018-12-09T01:10:22.950Z,2.51
2018-12-09T01:12:52.069Z,2.65
2018-12-09T01:15:21.015Z,2.92
2018-12-09T01:17:50.327Z,2.89
2018-12-09T01:20:19.273Z,2.86
2018-12-09T01:22:48.093Z,2.76
2018-12-09T01:25:16.977Z,2.41
2018-12-09T01:27:45.899Z,2.43
2018-12-09T01:30:14.897Z,2.42
2018-12-09T01:32:44.205Z,2.40
2018-12-09T01:35:13.133Z,2.54
2018-12-09T01:37:42.032Z,2.64
2018-12-09T01:40:10.934Z,2.53
2018-12-09T01:42:39.842Z,2.78
2018-12-09T01:45:08.779Z,2.84
2018-12-09T01:47:38.114Z,2.29
2018-12-09T01:50:07.168Z,2.51
2018-12-09T01:52:36.193Z,2.45
2018-12-09T01:55:05.172Z,2.30
2018-12-09T01:57:34.073Z,2.44
2018-12-09T02:00:03.254Z,2.36
2018-12-09T02:02:32.268Z,2.47
2018-12-09T02:05:01.254Z,2.42
2018-12-09T02:07:30.417Z,2.38
2018-12-09T02:09:59.548Z,2.26
2018-12-09T02:12:28.377Z,2.60
2018-12-09T02:14:57.496Z,2.55
2018-12-09T02:17:26.520Z,2.65
2018-12-09T02:19:55.868Z,2.45
2018-12-09T02:22:24.869Z,2.40
2018-12-09T02:24:53.905Z,2.42
2018-12-09T02:27:22.801Z,2.48
2018-12-09T02:29:51.693Z,2.35
2018-12-09T02:32:20.617Z,2.38
2018-12-09T02:34:52.237Z,2.37
2018-12-09T02:37:21.293Z,2.52
2018-12-09T02:39:50.838Z,2.39
2018-12-09T02:42:19.850Z,2.23
2018-12-09T02:44:48.777Z,2.32
2018-12-09T02:47:17.737Z,2.67
2018-12-09T02:49:46.644Z,2.43
2018-12-09T02:52:15.583Z,2.51
2018-12-09T02:54:44.583Z,2.44
2018-12-09T02:57:13.593Z,2.41
2018-12-09T02:59:42.424Z,2.39
2018-12-09T03:02:11.700Z,2.43
2018-12-09T03:04:40.752Z,2.65
2018-12-09T03:07:09.664Z,2.48
2018-12-09T03:09:38.548Z,2.59
2018-12-09T03:12:07.640Z,2.95
2018-12-09T03:14:36.599Z,2.73
2018-12-09T03:17:05.523Z,2.73
2018-12-09T03:19:34.453Z,2.92
2018-12-09T03:22:03.459Z,2.95
2018-12-09T03:24:32.696Z,3.03
2018-12-09T03:27:01.731Z,2.67
2018-12-09T03:29:30.761Z,2.65
2018-12-09T03:31:59.680Z,2.78
2018-12-09T03:34:28.636Z,2.60
2018-12-09T03:36:57.537Z,2.67
2018-12-09T03:39:26.491Z,2.78
2018-12-09T03:41:55.415Z,2.89
2018-12-09T03:44:24.312Z,2.98
2018-12-09T03:46:53.943Z,2.73
2018-12-09T03:49:22.961Z,2.56
2018-12-09T03:51:51.861Z,2.57
2018-12-09T03:54:20.772Z,2.84
2018-12-09T03:56:49.685Z,2.58
2018-12-09T03:59:18.674Z,2.51
2018-12-09T04:01:47.587Z,2.49
2018-12-09T04:04:16.538Z,2.55
2018-12-09T04:06:45.456Z,2.49
2018-12-09T04:09:14.842Z,2.61
2018-12-09T04:11:43.849Z,2.70
2018-12-09T04:14:12.795Z,2.70
2018-12-09T04:16:41.750Z,2.61
2018-12-09T04:19:10.665Z,2.75
2018-12-09T04:21:39.606Z,2.62
2018-12-09T04:24:08.429Z,2.54
2018-12-09T04:26:37.325Z,2.54
2018-12-09T04:29:06.238Z,2.36
2018-12-09T04:31:35.574Z,2.34
2018-12-09T04:34:04.580Z,2.38
2018-12-09T04:36:33.505Z,2.28
2018-12-09T04:39:02.556Z,2.38
2018-12-09T04:41:31.615Z,2.56
2018-12-09T04:44:00.424Z,2.52
2018-12-09T04:46:29.353Z,2.49
2018-12-09T04:48:58.441Z,2.64
2018-12-09T04:51:37.345Z,2.83
2018-12-09T04:54:06.338Z,2.82
2018-12-09T04:56:35.258Z,2.60
2018-12-09T04:59:17.477Z,2.30
2018-12-09T05:01:46.758Z,2.37
2018-12-09T05:04:15.910Z,2.62
2018-12-09T05:06:44.847Z,2.49
2018-12-09T05:09:13.857Z,2.38
2018-12-09T05:11:42.798Z,2.40
2018-12-09T05:14:11.734Z,2.54
2018-12-09T05:16:40.665Z,2.65
2018-12-09T05:19:09.649Z,2.74
2018-12-09T05:21:38.454Z,2.73
2018-12-09T05:24:07.798Z,2.37
2018-12-09T05:26:36.813Z,2.36
2018-12-09T05:29:05.735Z,2.54
2018-12-09T05:31:34.525Z,2.81
2018-12-09T05:34:03.453Z,2.77
2018-12-09T05:36:32.977Z,2.77
2018-12-09T05:39:02.025Z,2.39
2018-12-09T05:41:31.141Z,2.39
2018-12-09T05:44:00.053Z,2.45
2018-12-09T05:46:28.981Z,2.75
2018-12-09T05:48:57.867Z,2.32
2018-12-09T05:51:26.771Z,2.55
2018-12-09T05:53:55.597Z,2.50
2018-12-09T05:56:24.500Z,2.67
2018-12-09T05:58:53.840Z,2.79
2018-12-09T06:01:22.748Z,2.84
2018-12-09T06:03:51.717Z,2.72
2018-12-09T06:06:20.612Z,2.44
2018-12-09T06:08:49.519Z,2.50
2018-12-09T06:11:18.376Z,2.37
2018-12-09T06:13:47.289Z,2.51
2018-12-09T06:16:16.337Z,2.64
2018-12-09T06:18:45.361Z,2.85
2018-12-09T06:21:14.330Z,2.87
2018-12-09T06:23:43.141Z,2.54
2018-12-09T06:26:12.036Z,2.47
2018-12-09T06:28:40.933Z,2.43
2018-12-09T06:31:09.981Z,2.54
2018-12-09T06:33:39.201Z,2.57
2018-12-09T06:36:08.042Z,2.43
2018-12-09T06:38:36.956Z,2.51
2018-12-09T06:41:05.887Z,2.63
2018-12-09T06:43:34.657Z,2.69
2018-12-09T06:46:03.577Z,2.50
2018-12-09T06:48:32.478Z,2.47
2018-12-09T06:51:01.386Z,2.51
2018-12-09T06:53:30.491Z,2.80
2018-12-09T06:55:59.318Z,3.01
2018-12-09T06:58:28.245Z,3.11
2018-12-09T07:00:57.275Z,3.04
2018-12-09T07:03:26.406Z,2.92
2018-12-09T07:05:55.309Z,2.90
2018-12-09T07:08:24.530Z,2.80
2018-12-09T07:10:53.425Z,3.10
2018-12-09T07:13:22.268Z,3.20
2018-12-09T07:15:51.604Z,3.28
2018-12-09T07:18:20.608Z,3.37
2018-12-09T07:20:49.853Z,3.36
2018-12-09T07:23:18.749Z,3.46
2018-12-09T07:25:47.702Z,3.48
2018-12-09T07:28:16.733Z,3.48
2018-12-09T07:30:45.645Z,3.44
2018-12-09T07:33:15.142Z,3.45
2018-12-09T07:35:43.980Z,3.43
2018-12-09T07:38:12.797Z,3.27
2018-12-09T07:40:41.715Z,3.39
2018-12-09T07:43:10.645Z,3.39
2018-12-09T07:45:39.573Z,3.31
2018-12-09T07:48:08.570Z,3.52
2018-12-09T07:50:37.463Z,3.58
2018-12-09T07:53:06.549Z,3.61
2018-12-09T07:55:35.328Z,3.49
2018-12-09T07:58:04.233Z,3.51
2018-12-09T08:00:33.169Z,3.54
2018-12-09T08:03:02.105Z,3.68
2018-12-09T08:05:31.518Z,3.67
2018-12-09T08:08:00.469Z,3.64
2018-12-09T08:10:29.417Z,3.70
2018-12-09T08:12:58.326Z,3.71
2018-12-09T08:15:27.249Z,3.79
2018-12-09T08:17:56.249Z,3.84
2018-12-09T08:20:25.156Z,3.78
2018-12-09T08:22:54.050Z,3.80
2018-12-09T08:25:23.114Z,3.80
2018-12-09T08:27:52.132Z,3.65
2018-12-09T08:30:21.045Z,3.67
2018-12-09T08:32:49.953Z,3.72
2018-12-09T08:35:18.877Z,3.71
2018-12-09T08:37:47.662Z,3.84
2018-12-09T08:40:16.588Z,4.00
2018-12-09T08:42:45.595Z,4.01
2018-12-09T08:45:14.505Z,4.09
2018-12-09T08:47:43.531Z,4.14
2018-12-09T08:50:12.362Z,4.28
2018-12-09T08:52:41.309Z,4.35
2018-12-09T08:55:10.357Z,4.44
2018-12-09T08:57:39.309Z,4.51
2018-12-09T09:00:08.248Z,4.49
2018-12-09T09:02:37.615Z,4.53
2018-12-09T09:05:06.906Z,4.60
2018-12-09T09:07:35.798Z,4.64
2018-12-09T09:10:05.429Z,4.59
2018-12-09T09:12:34.392Z,4.67
2018-12-09T09:15:03.453Z,4.72
2018-12-09T09:17:32.438Z,4.79
2018-12-09T09:20:01.267Z,4.79
2018-12-09T09:22:30.978Z,4.82
2018-12-09T09:24:59.878Z,4.82
2018-12-09T09:27:28.789Z,4.85
2018-12-09T09:29:57.697Z,4.91
2018-12-09T09:32:26.525Z,4.96
2018-12-09T09:34:55.460Z,5.07
2018-12-09T09:37:24.474Z,5.12
2018-12-09T09:39:53.383Z,5.19
2018-12-09T09:42:22.373Z,5.16
2018-12-09T09:44:51.297Z,5.15
2018-12-09T09:47:20.148Z,5.20
2018-12-09T09:49:49.168Z,5.24
2018-12-09T09:52:18.063Z,5.22
2018-12-09T09:54:47.066Z,5.19
2018-12-09T09:57:16.064Z,5.28
2018-12-09T09:59:44.957Z,5.32
2018-12-09T10:02:13.877Z,5.37
2018-12-09T10:04:42.673Z,5.39
2018-12-09T10:07:11.673Z,5.48
2018-12-09T10:09:40.682Z,5.51
2018-12-09T10:12:09.502Z,5.53
2018-12-09T10:14:38.384Z,5.54
2018-12-09T10:17:07.405Z,5.58
2018-12-09T10:19:36.304Z,5.60
2018-12-09T10:22:05.233Z,5.68
2018-12-09T10:24:40.806Z,5.68
2018-12-09T10:27:09.717Z,5.75
2018-12-09T10:29:39.016Z,5.81
2018-12-09T10:32:07.828Z,5.86
2018-12-09T10:34:38.944Z,5.93
2018-12-09T10:37:07.681Z,6.01
2018-12-09T10:39:36.482Z,6.08
2018-12-09T10:42:05.387Z,6.08
2018-12-09T10:44:34.253Z,6.14
2018-12-09T10:47:03.356Z,6.16
2018-12-09T10:49:32.385Z,6.08
2018-12-09T10:52:01.313Z,6.07
2018-12-09T10:54:30.225Z,6.24
2018-12-09T10:56:59.324Z,6.37
2018-12-09T10:59:28.109Z,6.35
2018-12-09T11:02:01.493Z,6.44
2018-12-09T11:04:30.485Z,6.46
2018-12-09T11:06:59.372Z,6.45
2018-12-09T11:09:28.284Z,6.49
2018-12-09T11:11:57.313Z,6.55
2018-12-09T11:14:26.122Z,6.54
2018-12-09T11:16:55.056Z,6.64
2018-12-09T11:19:23.954Z,6.62
2018-12-09T11:21:52.861Z,6.65
2018-12-09T11:24:21.690Z,6.69
2018-12-09T11:26:50.472Z,6.73
2018-12-09T11:29:19.378Z,6.70
2018-12-09T11:31:48.175Z,6.75
2018-12-09T11:34:17.073Z,6.75
2018-12-09T11:36:45.965Z,6.78
2018-12-09T11:39:14.846Z,6.82
2018-12-09T11:41:43.742Z,6.84
2018-12-09T11:44:12.601Z,6.85
2018-12-09T11:46:41.624Z,6.87
2018-12-09T11:49:10.587Z,6.88
2018-12-09T11:51:39.661Z,6.88
2018-12-09T11:54:08.593Z,6.97
2018-12-09T11:56:37.503Z,7.01
2018-12-09T11:59:06.394Z,7.12
2018-12-09T12:01:35.301Z,7.20
2018-12-09T12:04:04.134Z,7.22
2018-12-09T12:06:33.061Z,7.27
2018-12-09T12:09:02.076Z,7.32
2018-12-09T12:11:31.604Z,7.30
2018-12-09T12:14:00.518Z,7.29
2018-12-09T12:16:29.337Z,7.29
2018-12-09T12:18:58.255Z,7.23
2018-12-09T12:21:27.152Z,7.29
2018-12-09T12:23:56.045Z,7.27
2018-12-09T12:26:24.873Z,7.28
2018-12-09T12:28:53.991Z,7.28
2018-12-09T12:31:22.778Z,7.28
2018-12-09T12:33:51.599Z,7.28
2018-12-09T12:36:20.611Z,7.30
2018-12-09T12:38:50.570Z,7.34
2018-12-09T12:41:21.417Z,7.31
2018-12-09T12:43:51.017Z,7.34
2018-12-09T12:46:20.049Z,7.28
2018-12-09T12:48:49.262Z,7.30
2018-12-09T12:51:18.338Z,7.34
2018-12-09T12:53:47.374Z,7.32
2018-12-09T12:56:16.230Z,7.25
2018-12-09T12:58:45.149Z,7.25
2018-12-09T13:01:14.761Z,7.21
2018-12-09T13:03:43.566Z,7.28
2018-12-09T13:06:13.430Z,7.25
2018-12-09T13:08:42.285Z,7.25
2018-12-09T13:11:11.291Z,7.25
2018-12-09T13:13:40.133Z,7.19
2018-12-09T13:16:11.945Z,7.16
2018-12-09T13:18:40.958Z,7.12
2018-12-09T13:21:09.784Z,7.14
2018-12-09T13:23:38.696Z,7.10
2018-12-09T13:26:07.593Z,7.08
2018-12-09T13:28:36.512Z,7.08
2018-12-09T13:31:05.333Z,7.12
2018-12-09T13:33:34.230Z,7.11
2018-12-09T13:36:03.982Z,7.10
2018-12-09T13:38:32.904Z,7.11
2018-12-09T13:41:01.843Z,7.12
2018-12-09T13:43:30.773Z,7.13
2018-12-09T13:45:59.685Z,7.11
2018-12-09T13:48:28.686Z,7.12
2018-12-09T13:50:57.622Z,7.16
2018-12-09T13:53:26.733Z,7.18
2018-12-09T13:55:55.653Z,7.14
2018-12-09T13:58:24.559Z,7.13
2018-12-09T14:00:53.529Z,7.08
2018-12-09T14:03:22.429Z,7.08
2018-12-09T14:05:51.351Z,7.05
2018-12-09T14:08:20.257Z,7.06
2018-12-09T14:10:49.257Z,7.00
2018-12-09T14:13:18.150Z,7.02
2018-12-09T14:15:47.054Z,7.02
2018-12-09T14:18:16.097Z,6.98
2018-12-09T14:20:44.911Z,6.96
2018-12-09T14:23:13.811Z,6.96
2018-12-09T14:25:42.733Z,6.93
2018-12-09T14:28:11.649Z,6.94
2018-12-09T14:30:40.605Z,6.89
2018-12-09T14:33:09.649Z,6.88
2018-12-09T14:35:38.546Z,6.88
2018-12-09T14:38:07.362Z,6.84
2018-12-09T14:40:36.378Z,6.82
2018-12-09T14:43:05.272Z,6.82
2018-12-09T14:45:35.182Z,6.81
2018-12-09T14:48:04.185Z,6.80
2018-12-09T14:50:33.075Z,6.78
2018-12-09T14:53:01.972Z,6.77
2018-12-09T14:55:31.108Z,6.75
2018-12-09T14:58:00.030Z,6.71
2018-12-09T15:00:28.969Z,6.68
2018-12-09T15:02:57.752Z,6.49
2018-12-09T15:05:26.562Z,6.39
2018-12-09T15:07:55.466Z,6.39
2018-12-09T15:10:24.294Z,6.38
2018-12-09T15:12:53.209Z,6.29
2018-12-09T15:15:22.137Z,6.20
2018-12-09T15:17:51.133Z,6.22
2018-12-09T15:20:20.148Z,6.18
2018-12-09T15:22:49.158Z,6.10
2018-12-09T15:25:18.049Z,5.97
2018-12-09T15:27:46.961Z,5.93
2018-12-09T15:30:15.908Z,5.94
2018-12-09T15:32:44.797Z,5.89
2018-12-09T15:35:13.781Z,5.86
2018-12-09T15:37:42.790Z,5.81
2018-12-09T15:40:11.716Z,5.67
2018-12-09T15:42:40.713Z,5.60
2018-12-09T15:45:09.766Z,5.67
2018-12-09T15:47:38.768Z,5.68
2018-12-09T15:50:09.036Z,5.56
2018-12-09T15:52:37.973Z,5.42
2018-12-09T15:55:07.050Z,5.39
2018-12-09T15:57:35.973Z,5.48
2018-12-09T16:00:05.529Z,5.48
2018-12-09T16:02:34.571Z,5.38
2018-12-09T16:05:03.691Z,5.34
2018-12-09T16:07:32.690Z,5.34
2018-12-09T16:10:01.733Z,5.22
2018-12-09T16:12:30.608Z,5.15
2018-12-09T16:14:59.509Z,5.08
2018-12-09T16:17:28.462Z,5.09
2018-12-09T16:19:57.466Z,5.10
2018-12-09T16:22:26.236Z,5.13
2018-12-09T16:24:55.272Z,5.12
2018-12-09T16:27:24.185Z,5.16
2018-12-09T16:29:53.012Z,5.01
2018-12-09T16:32:21.936Z,4.87
2018-12-09T16:34:50.850Z,4.94
2018-12-09T16:37:19.778Z,4.99
2018-12-09T16:39:48.910Z,5.04
2018-12-09T16:42:17.815Z,4.87
2018-12-09T16:44:46.712Z,4.80
2018-12-09T16:47:15.554Z,4.92
2018-12-09T16:49:44.391Z,4.75
2018-12-09T16:52:13.480Z,4.88
2018-12-09T16:54:42.378Z,4.86
2018-12-09T16:57:11.405Z,4.82
2018-12-09T16:59:40.289Z,4.90
2018-12-09T17:02:09.202Z,4.89
2018-12-09T17:04:38.217Z,4.74
2018-12-09T17:07:06.995Z,4.62
2018-12-09T17:09:35.915Z,4.35
2018-12-09T17:12:05.949Z,4.45
2018-12-09T17:14:34.798Z,4.43
2018-12-09T17:17:03.734Z,4.23
2018-12-09T17:19:32.746Z,4.31
2018-12-09T17:22:02.738Z,4.07
2018-12-09T17:24:31.653Z,3.91
2018-12-09T17:27:00.651Z,3.99
2018-12-09T17:29:29.584Z,4.15
2018-12-09T17:31:58.503Z,3.96
2018-12-09T17:34:27.534Z,3.96
2018-12-09T17:36:56.449Z,4.03
2018-12-09T17:39:25.452Z,3.92
2018-12-09T17:41:54.397Z,3.71
2018-12-09T17:44:24.282Z,3.81
2018-12-09T17:46:53.440Z,3.58
2018-12-09T17:49:22.493Z,3.59
2018-12-09T17:51:52.022Z,3.62
2018-12-09T17:54:21.344Z,3.53
2018-12-09T17:56:50.901Z,3.67
2018-12-09T17:59:19.833Z,3.77
2018-12-09T18:01:49.710Z,3.77
2018-12-09T18:04:18.537Z,3.84
2018-12-09T18:06:47.633Z,3.75
2018-12-09T18:09:17.085Z,3.89
2018-12-09T18:11:46.008Z,3.75
2018-12-09T18:14:15.067Z,3.75
2018-12-09T18:16:44.114Z,3.53
2018-12-09T18:19:14.173Z,3.67
2018-12-09T18:21:43.031Z,3.46
2018-12-09T18:24:11.965Z,3.49
2018-12-09T18:26:40.789Z,3.38
2018-12-09T18:29:10.461Z,3.42
2018-12-09T18:31:40.145Z,3.35
2018-12-09T18:34:10.083Z,3.33
2018-12-09T18:36:39.141Z,3.33
2018-12-09T18:39:08.805Z,3.30
2018-12-09T18:41:37.617Z,3.38
2018-12-09T18:44:06.926Z,3.33
2018-12-09T18:46:35.841Z,3.57
2018-12-09T18:49:04.767Z,3.78
2018-12-09T18:51:33.690Z,3.57
2018-12-09T18:54:02.512Z,2.98
2018-12-09T18:56:31.670Z,3.09
2018-12-09T18:59:00.660Z,3.16
2018-12-09T19:01:30.292Z,3.15
2018-12-09T19:03:59.228Z,3.22
2018-12-09T19:06:28.163Z,3.04
2018-12-09T19:08:57.146Z,3.16
2018-12-09T19:11:26.224Z,3.24
2018-12-09T19:13:55.903Z,3.37
2018-12-09T19:16:25.871Z,3.43
2018-12-09T19:18:54.773Z,3.30
2018-12-09T19:21:23.731Z,3.21
2018-12-09T19:23:52.622Z,3.05
2018-12-09T19:26:21.531Z,3.00
2018-12-09T19:28:50.441Z,2.94
2018-12-09T19:31:19.340Z,3.10
2018-12-09T19:33:48.252Z,3.10
2018-12-09T19:36:17.173Z,2.99
2018-12-09T19:38:46.100Z,2.79
2018-12-09T19:41:15.055Z,2.88
2018-12-09T19:43:44.161Z,3.03
2018-12-09T19:46:14.161Z,3.09
2018-12-09T19:48:43.057Z,2.76
2018-12-09T19:51:12.035Z,3.04
2018-12-09T19:53:40.898Z,3.10
2018-12-09T19:56:09.930Z,2.91
2018-12-09T19:58:38.874Z,2.84
2018-12-09T20:01:07.916Z,2.63
2018-12-09T20:03:36.737Z,2.58
2018-12-09T20:06:05.593Z,2.82
2018-12-09T20:08:34.500Z,2.71
2018-12-09T20:11:03.354Z,2.58
2018-12-09T20:13:32.305Z,2.77
2018-12-09T20:16:01.229Z,2.77
2018-12-09T20:18:30.139Z,2.73
2018-12-09T20:20:58.984Z,2.82
2018-12-09T20:23:27.973Z,2.88
2018-12-09T20:25:56.803Z,2.47
2018-12-09T20:28:25.601Z,2.63
2018-12-09T20:30:54.401Z,2.65
2018-12-09T20:33:23.334Z,2.34
2018-12-09T20:35:52.242Z,2.51
2018-12-09T20:38:22.783Z,2.54
2018-12-09T20:40:51.569Z,2.37
2018-12-09T20:43:20.776Z,2.46
2018-12-09T20:45:49.688Z,2.73
2018-12-09T20:48:18.574Z,2.59
2018-12-09T20:50:47.417Z,2.51
2018-12-09T20:53:16.454Z,2.62
2018-12-09T20:55:45.349Z,2.77
2018-12-09T20:58:14.298Z,2.89
2018-12-09T21:00:43.225Z,2.71
2018-12-09T21:03:12.049Z,2.48
2018-12-09T21:05:40.884Z,2.27
2018-12-09T21:08:09.866Z,2.22
2018-12-09T21:10:38.750Z,2.23
2018-12-09T21:13:07.653Z,2.35
2018-12-09T21:15:36.562Z,2.38
2018-12-09T21:18:05.486Z,2.12
2018-12-09T21:20:34.420Z,2.05
2018-12-09T21:23:03.447Z,2.01
2018-12-09T21:25:32.360Z,2.22
2018-12-09T21:28:01.169Z,2.23
2018-12-09T21:30:30.079Z,2.05
2018-12-09T21:32:59.005Z,2.06
2018-12-09T21:35:29.266Z,1.94
2018-12-09T21:37:58.278Z,2.14
2018-12-09T21:40:27.096Z,2.40
2018-12-09T21:42:56.004Z,2.36
2018-12-09T21:45:25.064Z,2.20
2018-12-09T21:47:54.063Z,1.99
2018-12-09T21:50:24.005Z,1.97
2018-12-09T21:52:53.025Z,2.25
2018-12-09T21:55:22.127Z,2.24
2018-12-09T21:57:51.123Z,2.21
2018-12-09T22:00:20.037Z,1.97
2018-12-09T22:02:48.954Z,2.05
2018-12-09T22:05:17.865Z,2.10
2018-12-09T22:07:46.805Z,1.80
2018-12-09T22:10:15.857Z,1.68
2018-12-09T22:12:44.901Z,1.71
2018-12-09T22:15:13.800Z,1.91
2018-12-09T22:17:42.776Z,2.01
2018-12-09T22:20:11.603Z,1.81
2018-12-09T22:22:40.520Z,1.96
2018-12-09T22:25:09.444Z,2.16
2018-12-09T22:27:38.345Z,2.21
2018-12-09T22:30:07.529Z,2.11
2018-12-09T22:32:36.440Z,2.18
2018-12-09T22:35:05.917Z,2.02
2018-12-09T22:37:34.808Z,1.85
2018-12-09T22:40:04.417Z,1.84
2018-12-09T22:42:33.226Z,1.68
2018-12-09T22:45:02.106Z,1.69
2018-12-09T22:47:31.192Z,1.81
2018-12-09T22:50:00.137Z,1.63
2018-12-09T22:52:29.025Z,1.70
2018-12-09T22:54:57.837Z,1.73
2018-12-09T22:57:26.869Z,1.65
2018-12-09T22:59:55.888Z,1.84
2018-12-09T23:02:30.354Z,1.76
2018-12-09T23:04:59.274Z,1.82
2018-12-09T23:07:33.626Z,1.89
2018-12-09T23:10:02.738Z,1.95
2018-12-09T23:12:31.727Z,2.00
2018-12-09T23:15:00.625Z,1.59
2018-12-09T23:17:29.650Z,1.74
2018-12-09T23:19:58.548Z,2.02
2018-12-09T23:22:27.470Z,1.70
2018-12-09T23:24:56.274Z,2.01
2018-12-09T23:27:25.461Z,1.93
2018-12-09T23:29:54.348Z,1.90
2018-12-09T23:32:23.281Z,1.61
2018-12-09T23:34:52.280Z,1.64
2018-12-09T23:37:21.068Z,1.78
2018-12-09T23:39:49.963Z,1.75
2018-12-09T23:42:18.849Z,1.50
2018-12-09T23:44:47.784Z,1.46
2018-12-09T23:47:16.722Z,1.50
2018-12-09T23:49:45.617Z,1.44
2018-12-09T23:52:14.961Z,1.72
2018-12-09T23:54:43.755Z,1.52
2018-12-09T23:57:12.598Z,1.58
2018-12-09T23:59:41.498Z,1.43
